sensor_id;sensor_type;location;lat;lon;timestamp;P1;durP1;ratioP1;P2;durP2;ratioP2
68168;SDS011;54981;50.206;15.978;2023-07-24T00:00:12;7.57;;;6.88;;
68168;SDS011;54981;50.206;15.978;2023-07-24T00:02:43;9.05;;;7.72;;
68168;SDS011;54981;50.206;15.978;2023-07-24T00:05:13;9.95;;;7.47;;
68168;SDS011;54981;50.206;15.978;2023-07-24T00:07:44;8.48;;;6.80;;
68168;SDS011;54981;50.206;15.978;2023-07-24T00:10:14;10.88;;;8.32;;
68168;SDS011;54981;50.206;15.978;2023-07-24T00:12:44;7.20;;;6.47;;
68168;SDS011;54981;50.206;15.978;2023-07-24T00:15:15;9.63;;;8.60;;
68168;SDS011;54981;50.206;15.978;2023-07-24T00:17:45;8.00;;;7.20;;
68168;SDS011;54981;50.206;15.978;2023-07-24T00:20:16;8.35;;;7.43;;
68168;SDS011;54981;50.206;15.978;2023-07-24T00:22:46;8.05;;;7.25;;
68168;SDS011;54981;50.206;15.978;2023-07-24T00:25:16;8.68;;;7.55;;
68168;SDS011;54981;50.206;15.978;2023-07-24T00:27:47;8.05;;;7.25;;
68168;SDS011;54981;50.206;15.978;2023-07-24T00:30:17;7.75;;;6.72;;
68168;SDS011;54981;50.206;15.978;2023-07-24T00:32:47;9.50;;;8.50;;
68168;SDS011;54981;50.206;15.978;2023-07-24T00:35:18;8.88;;;7.50;;
68168;SDS011;54981;50.206;15.978;2023-07-24T00:37:48;10.00;;;8.10;;
68168;SDS011;54981;50.206;15.978;2023-07-24T00:40:19;8.45;;;7.65;;
68168;SDS011;54981;50.206;15.978;2023-07-24T00:42:49;8.20;;;7.40;;
68168;SDS011;54981;50.206;15.978;2023-07-24T00:45:19;8.55;;;7.65;;
68168;SDS011;54981;50.206;15.978;2023-07-24T00:47:51;9.10;;;7.63;;
68168;SDS011;54981;50.206;15.978;2023-07-24T00:50:21;8.80;;;7.90;;
68168;SDS011;54981;50.206;15.978;2023-07-24T00:52:53;8.02;;;7.22;;
68168;SDS011;54981;50.206;15.978;2023-07-24T00:55:24;9.07;;;7.70;;
68168;SDS011;54981;50.206;15.978;2023-07-24T00:57:55;8.38;;;7.57;;
68168;SDS011;54981;50.206;15.978;2023-07-24T01:00:28;8.35;;;7.47;;
68168;SDS011;54981;50.206;15.978;2023-07-24T01:02:59;9.45;;;7.32;;
68168;SDS011;54981;50.206;15.978;2023-07-24T01:05:30;9.13;;;7.55;;
68168;SDS011;54981;50.206;15.978;2023-07-24T01:08:00;8.48;;;7.03;;
68168;SDS011;54981;50.206;15.978;2023-07-24T01:10:30;8.60;;;7.70;;
68168;SDS011;54981;50.206;15.978;2023-07-24T01:15:32;8.98;;;8.05;;
68168;SDS011;54981;50.206;15.978;2023-07-24T01:18:06;8.98;;;8.07;;
68168;SDS011;54981;50.206;15.978;2023-07-24T01:20:42;12.17;;;9.13;;
68168;SDS011;54981;50.206;15.978;2023-07-24T01:26:25;8.25;;;7.30;;
68168;SDS011;54981;50.206;15.978;2023-07-24T01:28:55;11.00;;;8.55;;
68168;SDS011;54981;50.206;15.978;2023-07-24T01:31:26;9.93;;;7.82;;
68168;SDS011;54981;50.206;15.978;2023-07-24T01:33:57;8.93;;;8.02;;
68168;SDS011;54981;50.206;15.978;2023-07-24T01:36:27;9.05;;;8.15;;
68168;SDS011;54981;50.206;15.978;2023-07-24T01:38:58;8.70;;;7.90;;
68168;SDS011;54981;50.206;15.978;2023-07-24T01:41:30;8.30;;;7.50;;
68168;SDS011;54981;50.206;15.978;2023-07-24T01:44:01;8.77;;;7.97;;
68168;SDS011;54981;50.206;15.978;2023-07-24T01:46:31;8.38;;;7.57;;
68168;SDS011;54981;50.206;15.978;2023-07-24T01:49:02;8.85;;;7.95;;
68168;SDS011;54981;50.206;15.978;2023-07-24T01:51:32;8.40;;;7.47;;
68168;SDS011;54981;50.206;15.978;2023-07-24T01:54:02;9.82;;;8.82;;
68168;SDS011;54981;50.206;15.978;2023-07-24T01:56:35;10.77;;;8.88;;
68168;SDS011;54981;50.206;15.978;2023-07-24T01:59:06;10.27;;;8.57;;
68168;SDS011;54981;50.206;15.978;2023-07-24T02:01:36;10.40;;;8.57;;
68168;SDS011;54981;50.206;15.978;2023-07-24T02:04:06;11.05;;;8.25;;
68168;SDS011;54981;50.206;15.978;2023-07-24T02:06:37;8.55;;;7.68;;
68168;SDS011;54981;50.206;15.978;2023-07-24T02:09:07;9.55;;;8.50;;
68168;SDS011;54981;50.206;15.978;2023-07-24T02:11:37;9.30;;;8.27;;
68168;SDS011;54981;50.206;15.978;2023-07-24T02:14:08;10.02;;;8.48;;
68168;SDS011;54981;50.206;15.978;2023-07-24T02:16:38;8.70;;;7.57;;
68168;SDS011;54981;50.206;15.978;2023-07-24T02:19:09;10.38;;;8.48;;
68168;SDS011;54981;50.206;15.978;2023-07-24T02:21:39;9.30;;;8.10;;
68168;SDS011;54981;50.206;15.978;2023-07-24T02:24:10;9.93;;;8.85;;
68168;SDS011;54981;50.206;15.978;2023-07-24T02:26:41;8.27;;;7.38;;
68168;SDS011;54981;50.206;15.978;2023-07-24T02:29:11;10.45;;;8.57;;
68168;SDS011;54981;50.206;15.978;2023-07-24T02:31:41;10.23;;;8.23;;
68168;SDS011;54981;50.206;15.978;2023-07-24T02:34:12;9.38;;;8.38;;
68168;SDS011;54981;50.206;15.978;2023-07-24T02:36:43;9.13;;;8.00;;
68168;SDS011;54981;50.206;15.978;2023-07-24T02:39:13;9.50;;;8.60;;
68168;SDS011;54981;50.206;15.978;2023-07-24T02:41:43;11.60;;;8.77;;
68168;SDS011;54981;50.206;15.978;2023-07-24T02:44:14;9.60;;;8.48;;
68168;SDS011;54981;50.206;15.978;2023-07-24T02:46:44;8.85;;;7.80;;
68168;SDS011;54981;50.206;15.978;2023-07-24T02:49:15;8.88;;;7.85;;
68168;SDS011;54981;50.206;15.978;2023-07-24T02:51:45;10.90;;;8.20;;
68168;SDS011;54981;50.206;15.978;2023-07-24T02:54:15;10.00;;;8.05;;
68168;SDS011;54981;50.206;15.978;2023-07-24T02:56:46;11.02;;;8.02;;
68168;SDS011;54981;50.206;15.978;2023-07-24T02:59:16;11.52;;;7.68;;
68168;SDS011;54981;50.206;15.978;2023-07-24T03:01:46;10.38;;;8.95;;
68168;SDS011;54981;50.206;15.978;2023-07-24T03:04:17;9.40;;;8.40;;
68168;SDS011;54981;50.206;15.978;2023-07-24T03:06:48;9.52;;;8.52;;
68168;SDS011;54981;50.206;15.978;2023-07-24T03:09:18;9.65;;;8.65;;
68168;SDS011;54981;50.206;15.978;2023-07-24T03:11:49;11.15;;;8.52;;
68168;SDS011;54981;50.206;15.978;2023-07-24T03:14:19;10.70;;;9.25;;
68168;SDS011;54981;50.206;15.978;2023-07-24T03:16:49;10.10;;;8.70;;
68168;SDS011;54981;50.206;15.978;2023-07-24T03:19:20;9.52;;;8.52;;
68168;SDS011;54981;50.206;15.978;2023-07-24T03:21:50;12.10;;;9.38;;
68168;SDS011;54981;50.206;15.978;2023-07-24T03:24:20;10.10;;;8.82;;
68168;SDS011;54981;50.206;15.978;2023-07-24T03:26:51;10.77;;;9.55;;
68168;SDS011;54981;50.206;15.978;2023-07-24T03:29:21;10.88;;;9.65;;
68168;SDS011;54981;50.206;15.978;2023-07-24T03:31:51;10.50;;;9.40;;
68168;SDS011;54981;50.206;15.978;2023-07-24T03:34:22;11.45;;;9.82;;
68168;SDS011;54981;50.206;15.978;2023-07-24T03:36:52;11.45;;;9.32;;
68168;SDS011;54981;50.206;15.978;2023-07-24T03:39:23;13.52;;;10.23;;
68168;SDS011;54981;50.206;15.978;2023-07-24T03:41:53;11.43;;;8.93;;
68168;SDS011;54981;50.206;15.978;2023-07-24T03:44:23;11.15;;;8.95;;
68168;SDS011;54981;50.206;15.978;2023-07-24T03:46:54;10.90;;;9.60;;
68168;SDS011;54981;50.206;15.978;2023-07-24T03:49:24;11.23;;;9.48;;
68168;SDS011;54981;50.206;15.978;2023-07-24T03:51:54;11.48;;;9.60;;
68168;SDS011;54981;50.206;15.978;2023-07-24T03:54:25;10.27;;;9.27;;
68168;SDS011;54981;50.206;15.978;2023-07-24T03:56:55;10.73;;;9.63;;
68168;SDS011;54981;50.206;15.978;2023-07-24T03:59:25;10.65;;;9.55;;
68168;SDS011;54981;50.206;15.978;2023-07-24T04:01:56;10.60;;;8.95;;
68168;SDS011;54981;50.206;15.978;2023-07-24T04:04:26;11.40;;;9.35;;
68168;SDS011;54981;50.206;15.978;2023-07-24T04:06:57;10.63;;;9.25;;
68168;SDS011;54981;50.206;15.978;2023-07-24T04:09:27;10.68;;;9.57;;
68168;SDS011;54981;50.206;15.978;2023-07-24T04:11:58;13.15;;;9.98;;
68168;SDS011;54981;50.206;15.978;2023-07-24T04:14:28;9.27;;;8.35;;
68168;SDS011;54981;50.206;15.978;2023-07-24T04:16:58;10.23;;;8.90;;
68168;SDS011;54981;50.206;15.978;2023-07-24T04:19:29;11.40;;;10.20;;
68168;SDS011;54981;50.206;15.978;2023-07-24T04:21:59;10.60;;;9.52;;
68168;SDS011;54981;50.206;15.978;2023-07-24T04:24:29;11.52;;;10.32;;
68168;SDS011;54981;50.206;15.978;2023-07-24T04:27:00;11.95;;;9.40;;
68168;SDS011;54981;50.206;15.978;2023-07-24T04:29:30;10.90;;;8.95;;
68168;SDS011;54981;50.206;15.978;2023-07-24T04:32:00;11.38;;;9.20;;
68168;SDS011;54981;50.206;15.978;2023-07-24T04:34:31;11.27;;;9.90;;
68168;SDS011;54981;50.206;15.978;2023-07-24T04:37:03;12.13;;;9.95;;
68168;SDS011;54981;50.206;15.978;2023-07-24T04:39:33;11.13;;;9.85;;
68168;SDS011;54981;50.206;15.978;2023-07-24T04:42:04;11.85;;;10.18;;
68168;SDS011;54981;50.206;15.978;2023-07-24T04:44:35;10.90;;;9.80;;
68168;SDS011;54981;50.206;15.978;2023-07-24T04:47:05;13.80;;;10.68;;
68168;SDS011;54981;50.206;15.978;2023-07-24T04:49:36;10.73;;;9.63;;
68168;SDS011;54981;50.206;15.978;2023-07-24T04:52:06;10.20;;;9.00;;
68168;SDS011;54981;50.206;15.978;2023-07-24T04:54:36;13.65;;;10.00;;
68168;SDS011;54981;50.206;15.978;2023-07-24T04:57:07;11.23;;;9.77;;
68168;SDS011;54981;50.206;15.978;2023-07-24T04:59:37;10.52;;;8.98;;
68168;SDS011;54981;50.206;15.978;2023-07-24T05:02:08;11.60;;;9.02;;
68168;SDS011;54981;50.206;15.978;2023-07-24T05:04:38;9.93;;;8.90;;
68168;SDS011;54981;50.206;15.978;2023-07-24T05:07:08;11.93;;;9.48;;
68168;SDS011;54981;50.206;15.978;2023-07-24T05:09:39;12.15;;;9.10;;
68168;SDS011;54981;50.206;15.978;2023-07-24T05:12:09;12.10;;;9.00;;
68168;SDS011;54981;50.206;15.978;2023-07-24T05:14:39;12.20;;;9.07;;
68168;SDS011;54981;50.206;15.978;2023-07-24T05:17:10;10.30;;;9.20;;
68168;SDS011;54981;50.206;15.978;2023-07-24T05:19:40;10.82;;;8.43;;
68168;SDS011;54981;50.206;15.978;2023-07-24T05:22:10;12.68;;;8.95;;
68168;SDS011;54981;50.206;15.978;2023-07-24T05:24:41;12.48;;;9.43;;
68168;SDS011;54981;50.206;15.978;2023-07-24T05:27:11;15.68;;;9.80;;
68168;SDS011;54981;50.206;15.978;2023-07-24T05:29:42;11.68;;;8.85;;
68168;SDS011;54981;50.206;15.978;2023-07-24T05:32:13;12.82;;;8.80;;
68168;SDS011;54981;50.206;15.978;2023-07-24T05:34:43;10.23;;;8.77;;
68168;SDS011;54981;50.206;15.978;2023-07-24T05:37:14;11.25;;;9.00;;
68168;SDS011;54981;50.206;15.978;2023-07-24T05:39:44;12.32;;;9.57;;
68168;SDS011;54981;50.206;15.978;2023-07-24T05:42:14;10.80;;;9.40;;
68168;SDS011;54981;50.206;15.978;2023-07-24T05:44:45;11.52;;;9.10;;
68168;SDS011;54981;50.206;15.978;2023-07-24T05:47:15;13.77;;;9.70;;
68168;SDS011;54981;50.206;15.978;2023-07-24T05:49:45;12.50;;;9.50;;
68168;SDS011;54981;50.206;15.978;2023-07-24T05:52:16;10.95;;;9.18;;
68168;SDS011;54981;50.206;15.978;2023-07-24T05:54:46;10.88;;;8.60;;
68168;SDS011;54981;50.206;15.978;2023-07-24T05:57:16;14.25;;;9.70;;
68168;SDS011;54981;50.206;15.978;2023-07-24T05:59:47;13.25;;;10.15;;
68168;SDS011;54981;50.206;15.978;2023-07-24T06:02:17;10.95;;;9.13;;
68168;SDS011;54981;50.206;15.978;2023-07-24T06:04:48;12.07;;;8.65;;
68168;SDS011;54981;50.206;15.978;2023-07-24T06:07:18;12.32;;;9.38;;
68168;SDS011;54981;50.206;15.978;2023-07-24T06:09:48;12.88;;;9.23;;
68168;SDS011;54981;50.206;15.978;2023-07-24T06:12:19;13.18;;;8.88;;
68168;SDS011;54981;50.206;15.978;2023-07-24T06:14:49;13.25;;;9.90;;
68168;SDS011;54981;50.206;15.978;2023-07-24T06:17:20;10.68;;;9.48;;
68168;SDS011;54981;50.206;15.978;2023-07-24T06:19:50;11.48;;;9.15;;
68168;SDS011;54981;50.206;15.978;2023-07-24T06:22:20;13.48;;;9.60;;
68168;SDS011;54981;50.206;15.978;2023-07-24T06:24:51;13.35;;;9.85;;
68168;SDS011;54981;50.206;15.978;2023-07-24T06:27:21;11.95;;;9.43;;
68168;SDS011;54981;50.206;15.978;2023-07-24T06:29:52;12.88;;;9.20;;
68168;SDS011;54981;50.206;15.978;2023-07-24T06:32:22;10.80;;;8.75;;
68168;SDS011;54981;50.206;15.978;2023-07-24T06:34:52;11.65;;;8.93;;
68168;SDS011;54981;50.206;15.978;2023-07-24T06:37:23;10.77;;;8.48;;
68168;SDS011;54981;50.206;15.978;2023-07-24T06:39:53;10.95;;;8.23;;
68168;SDS011;54981;50.206;15.978;2023-07-24T06:42:23;11.98;;;9.15;;
68168;SDS011;54981;50.206;15.978;2023-07-24T06:44:54;11.05;;;8.23;;
68168;SDS011;54981;50.206;15.978;2023-07-24T06:47:24;12.80;;;8.93;;
68168;SDS011;54981;50.206;15.978;2023-07-24T06:49:55;11.93;;;8.70;;
68168;SDS011;54981;50.206;15.978;2023-07-24T06:52:27;11.20;;;8.77;;
68168;SDS011;54981;50.206;15.978;2023-07-24T06:54:57;11.65;;;8.73;;
68168;SDS011;54981;50.206;15.978;2023-07-24T06:57:28;11.32;;;8.60;;
68168;SDS011;54981;50.206;15.978;2023-07-24T06:59:58;10.48;;;7.70;;
68168;SDS011;54981;50.206;15.978;2023-07-24T07:02:29;10.63;;;7.85;;
68168;SDS011;54981;50.206;15.978;2023-07-24T07:05:02;10.55;;;7.72;;
68168;SDS011;54981;50.206;15.978;2023-07-24T07:07:32;9.77;;;7.90;;
68168;SDS011;54981;50.206;15.978;2023-07-24T07:10:03;10.63;;;7.88;;
68168;SDS011;54981;50.206;15.978;2023-07-24T07:12:35;11.02;;;7.90;;
68168;SDS011;54981;50.206;15.978;2023-07-24T07:15:05;10.88;;;7.55;;
68168;SDS011;54981;50.206;15.978;2023-07-24T07:17:36;10.82;;;8.32;;
68168;SDS011;54981;50.206;15.978;2023-07-24T07:20:07;10.65;;;8.68;;
68168;SDS011;54981;50.206;15.978;2023-07-24T07:22:37;11.60;;;7.95;;
68168;SDS011;54981;50.206;15.978;2023-07-24T07:25:08;9.68;;;7.63;;
68168;SDS011;54981;50.206;15.978;2023-07-24T07:27:38;11.73;;;8.68;;
68168;SDS011;54981;50.206;15.978;2023-07-24T07:30:09;11.15;;;7.72;;
68168;SDS011;54981;50.206;15.978;2023-07-24T07:32:40;10.57;;;8.05;;
68168;SDS011;54981;50.206;15.978;2023-07-24T07:35:10;11.73;;;8.48;;
68168;SDS011;54981;50.206;15.978;2023-07-24T07:37:41;10.82;;;7.72;;
68168;SDS011;54981;50.206;15.978;2023-07-24T07:40:11;10.50;;;8.32;;
68168;SDS011;54981;50.206;15.978;2023-07-24T07:42:42;10.55;;;8.23;;
68168;SDS011;54981;50.206;15.978;2023-07-24T07:45:12;10.27;;;8.23;;
68168;SDS011;54981;50.206;15.978;2023-07-24T07:47:43;10.32;;;7.45;;
68168;SDS011;54981;50.206;15.978;2023-07-24T07:50:13;12.10;;;8.20;;
68168;SDS011;54981;50.206;15.978;2023-07-24T07:52:43;12.52;;;8.48;;
68168;SDS011;54981;50.206;15.978;2023-07-24T07:55:14;10.25;;;7.90;;
68168;SDS011;54981;50.206;15.978;2023-07-24T07:57:44;13.32;;;8.80;;
68168;SDS011;54981;50.206;15.978;2023-07-24T08:00:15;10.23;;;8.43;;
68168;SDS011;54981;50.206;15.978;2023-07-24T08:02:45;10.98;;;8.77;;
68168;SDS011;54981;50.206;15.978;2023-07-24T08:05:16;14.20;;;8.82;;
68168;SDS011;54981;50.206;15.978;2023-07-24T08:07:46;9.43;;;7.85;;
68168;SDS011;54981;50.206;15.978;2023-07-24T08:10:16;10.80;;;8.65;;
68168;SDS011;54981;50.206;15.978;2023-07-24T08:12:48;11.00;;;8.40;;
68168;SDS011;54981;50.206;15.978;2023-07-24T08:15:18;10.35;;;8.25;;
68168;SDS011;54981;50.206;15.978;2023-07-24T08:17:49;21.40;;;8.85;;
68168;SDS011;54981;50.206;15.978;2023-07-24T08:20:19;12.63;;;9.13;;
68168;SDS011;54981;50.206;15.978;2023-07-24T08:22:49;9.98;;;8.57;;
68168;SDS011;54981;50.206;15.978;2023-07-24T08:25:20;12.95;;;9.23;;
68168;SDS011;54981;50.206;15.978;2023-07-24T08:27:50;11.63;;;8.55;;
68168;SDS011;54981;50.206;15.978;2023-07-24T08:30:21;10.40;;;8.70;;
68168;SDS011;54981;50.206;15.978;2023-07-24T08:32:51;10.73;;;8.45;;
68168;SDS011;54981;50.206;15.978;2023-07-24T08:35:23;11.38;;;9.35;;
68168;SDS011;54981;50.206;15.978;2023-07-24T08:37:53;10.18;;;8.20;;
68168;SDS011;54981;50.206;15.978;2023-07-24T08:40:24;10.63;;;8.40;;
68168;SDS011;54981;50.206;15.978;2023-07-24T08:42:54;11.15;;;8.57;;
68168;SDS011;54981;50.206;15.978;2023-07-24T08:45:27;11.02;;;8.10;;
68168;SDS011;54981;50.206;15.978;2023-07-24T08:47:58;11.43;;;7.88;;
68168;SDS011;54981;50.206;15.978;2023-07-24T08:50:29;11.50;;;8.20;;
68168;SDS011;54981;50.206;15.978;2023-07-24T08:53:00;10.77;;;8.00;;
68168;SDS011;54981;50.206;15.978;2023-07-24T08:55:31;12.02;;;8.30;;
68168;SDS011;54981;50.206;15.978;2023-07-24T08:58:02;12.43;;;8.38;;
68168;SDS011;54981;50.206;15.978;2023-07-24T09:00:35;10.32;;;7.80;;
68168;SDS011;54981;50.206;15.978;2023-07-24T09:03:05;12.10;;;8.13;;
68168;SDS011;54981;50.206;15.978;2023-07-24T09:05:36;11.05;;;8.07;;
68168;SDS011;54981;50.206;15.978;2023-07-24T09:08:06;10.73;;;7.82;;
68168;SDS011;54981;50.206;15.978;2023-07-24T09:10:37;11.00;;;8.15;;
68168;SDS011;54981;50.206;15.978;2023-07-24T09:13:07;12.82;;;8.40;;
68168;SDS011;54981;50.206;15.978;2023-07-24T09:15:41;10.50;;;7.80;;
68168;SDS011;54981;50.206;15.978;2023-07-24T09:18:13;9.70;;;7.63;;
68168;SDS011;54981;50.206;15.978;2023-07-24T09:20:43;10.68;;;8.20;;
68168;SDS011;54981;50.206;15.978;2023-07-24T09:23:15;9.85;;;7.55;;
68168;SDS011;54981;50.206;15.978;2023-07-24T09:25:45;12.48;;;7.97;;
68168;SDS011;54981;50.206;15.978;2023-07-24T09:28:16;9.77;;;6.97;;
68168;SDS011;54981;50.206;15.978;2023-07-24T09:30:56;10.15;;;7.78;;
68168;SDS011;54981;50.206;15.978;2023-07-24T09:33:38;10.25;;;7.72;;
68168;SDS011;54981;50.206;15.978;2023-07-24T09:36:09;11.02;;;7.90;;
68168;SDS011;54981;50.206;15.978;2023-07-24T09:38:40;10.27;;;7.50;;
68168;SDS011;54981;50.206;15.978;2023-07-24T09:41:11;9.88;;;8.13;;
68168;SDS011;54981;50.206;15.978;2023-07-24T09:43:43;11.77;;;7.77;;
68168;SDS011;54981;50.206;15.978;2023-07-24T09:46:15;10.85;;;7.63;;
68168;SDS011;54981;50.206;15.978;2023-07-24T09:48:45;11.82;;;8.30;;
68168;SDS011;54981;50.206;15.978;2023-07-24T09:51:15;13.60;;;8.50;;
68168;SDS011;54981;50.206;15.978;2023-07-24T09:53:47;10.43;;;7.88;;
68168;SDS011;54981;50.206;15.978;2023-07-24T09:56:50;12.77;;;8.95;;
68168;SDS011;54981;50.206;15.978;2023-07-24T09:59:22;15.45;;;9.38;;
68168;SDS011;54981;50.206;15.978;2023-07-24T10:01:53;12.40;;;8.45;;
68168;SDS011;54981;50.206;15.978;2023-07-24T10:04:24;10.63;;;8.55;;
68168;SDS011;54981;50.206;15.978;2023-07-24T10:06:55;13.52;;;8.73;;
68168;SDS011;54981;50.206;15.978;2023-07-24T10:09:26;12.95;;;8.50;;
68168;SDS011;54981;50.206;15.978;2023-07-24T10:11:57;12.30;;;8.43;;
68168;SDS011;54981;50.206;15.978;2023-07-24T10:14:27;11.55;;;9.02;;
68168;SDS011;54981;50.206;15.978;2023-07-24T10:16:59;12.70;;;8.75;;
68168;SDS011;54981;50.206;15.978;2023-07-24T10:19:39;11.68;;;7.95;;
68168;SDS011;54981;50.206;15.978;2023-07-24T10:22:18;10.52;;;8.00;;
68168;SDS011;54981;50.206;15.978;2023-07-24T10:24:50;11.00;;;8.65;;
68168;SDS011;54981;50.206;15.978;2023-07-24T10:27:23;11.10;;;8.05;;
68168;SDS011;54981;50.206;15.978;2023-07-24T10:30:01;10.68;;;7.55;;
68168;SDS011;54981;50.206;15.978;2023-07-24T10:32:32;9.95;;;7.85;;
68168;SDS011;54981;50.206;15.978;2023-07-24T10:35:06;9.10;;;7.53;;
68168;SDS011;54981;50.206;15.978;2023-07-24T10:37:38;10.13;;;7.85;;
68168;SDS011;54981;50.206;15.978;2023-07-24T10:40:18;10.52;;;8.20;;
68168;SDS011;54981;50.206;15.978;2023-07-24T10:43:00;11.20;;;8.02;;
68168;SDS011;54981;50.206;15.978;2023-07-24T10:45:40;11.05;;;7.50;;
68168;SDS011;54981;50.206;15.978;2023-07-24T10:48:12;9.88;;;7.63;;
68168;SDS011;54981;50.206;15.978;2023-07-24T10:50:43;10.38;;;7.82;;
68168;SDS011;54981;50.206;15.978;2023-07-24T10:53:18;11.65;;;8.18;;
68168;SDS011;54981;50.206;15.978;2023-07-24T10:55:52;10.95;;;8.20;;
68168;SDS011;54981;50.206;15.978;2023-07-24T10:58:24;10.82;;;8.30;;
68168;SDS011;54981;50.206;15.978;2023-07-24T11:00:56;11.07;;;8.20;;
68168;SDS011;54981;50.206;15.978;2023-07-24T11:03:26;10.57;;;8.05;;
68168;SDS011;54981;50.206;15.978;2023-07-24T11:05:57;10.13;;;8.10;;
68168;SDS011;54981;50.206;15.978;2023-07-24T11:08:28;11.68;;;7.70;;
68168;SDS011;54981;50.206;15.978;2023-07-24T11:11:01;10.75;;;7.65;;
68168;SDS011;54981;50.206;15.978;2023-07-24T11:13:33;11.65;;;8.23;;
68168;SDS011;54981;50.206;15.978;2023-07-24T11:16:04;11.20;;;8.80;;
68168;SDS011;54981;50.206;15.978;2023-07-24T11:21:17;11.68;;;8.07;;
68168;SDS011;54981;50.206;15.978;2023-07-24T11:23:54;10.95;;;7.50;;
68168;SDS011;54981;50.206;15.978;2023-07-24T11:26:26;14.30;;;8.95;;
68168;SDS011;54981;50.206;15.978;2023-07-24T11:28:57;11.75;;;8.30;;
68168;SDS011;54981;50.206;15.978;2023-07-24T11:31:27;11.75;;;8.25;;
68168;SDS011;54981;50.206;15.978;2023-07-24T11:34:07;11.50;;;8.13;;
68168;SDS011;54981;50.206;15.978;2023-07-24T11:36:37;12.40;;;8.98;;
68168;SDS011;54981;50.206;15.978;2023-07-24T11:39:08;11.27;;;8.50;;
68168;SDS011;54981;50.206;15.978;2023-07-24T11:41:38;12.05;;;8.82;;
68168;SDS011;54981;50.206;15.978;2023-07-24T11:44:09;9.88;;;8.15;;
68168;SDS011;54981;50.206;15.978;2023-07-24T11:46:40;12.45;;;8.70;;
68168;SDS011;54981;50.206;15.978;2023-07-24T11:49:13;12.70;;;8.60;;
68168;SDS011;54981;50.206;15.978;2023-07-24T11:51:44;11.18;;;8.32;;
68168;SDS011;54981;50.206;15.978;2023-07-24T11:54:14;12.13;;;8.30;;
68168;SDS011;54981;50.206;15.978;2023-07-24T11:56:45;12.38;;;8.52;;
68168;SDS011;54981;50.206;15.978;2023-07-24T11:59:15;9.35;;;7.88;;
68168;SDS011;54981;50.206;15.978;2023-07-24T12:01:46;11.30;;;8.55;;
68168;SDS011;54981;50.206;15.978;2023-07-24T12:04:20;11.20;;;8.88;;
68168;SDS011;54981;50.206;15.978;2023-07-24T12:06:50;12.00;;;8.38;;
68168;SDS011;54981;50.206;15.978;2023-07-24T12:09:21;14.65;;;8.85;;
68168;SDS011;54981;50.206;15.978;2023-07-24T12:11:52;10.18;;;7.65;;
68168;SDS011;54981;50.206;15.978;2023-07-24T12:14:22;11.60;;;8.15;;
68168;SDS011;54981;50.206;15.978;2023-07-24T12:17:02;10.73;;;8.25;;
68168;SDS011;54981;50.206;15.978;2023-07-24T12:19:32;10.90;;;8.15;;
68168;SDS011;54981;50.206;15.978;2023-07-24T12:22:03;12.77;;;8.52;;
68168;SDS011;54981;50.206;15.978;2023-07-24T12:24:34;12.77;;;8.60;;
68168;SDS011;54981;50.206;15.978;2023-07-24T12:27:04;12.70;;;8.25;;
68168;SDS011;54981;50.206;15.978;2023-07-24T12:29:35;11.32;;;8.55;;
68168;SDS011;54981;50.206;15.978;2023-07-24T12:32:05;12.95;;;8.85;;
68168;SDS011;54981;50.206;15.978;2023-07-24T12:34:36;12.82;;;9.10;;
68168;SDS011;54981;50.206;15.978;2023-07-24T12:37:06;13.13;;;8.90;;
68168;SDS011;54981;50.206;15.978;2023-07-24T12:39:37;12.07;;;8.15;;
68168;SDS011;54981;50.206;15.978;2023-07-24T12:42:07;11.98;;;8.85;;
68168;SDS011;54981;50.206;15.978;2023-07-24T12:44:37;12.35;;;9.13;;
68168;SDS011;54981;50.206;15.978;2023-07-24T12:47:10;11.52;;;8.77;;
68168;SDS011;54981;50.206;15.978;2023-07-24T12:49:43;11.40;;;9.07;;
68168;SDS011;54981;50.206;15.978;2023-07-24T12:52:13;12.60;;;8.88;;
68168;SDS011;54981;50.206;15.978;2023-07-24T12:54:43;11.15;;;8.45;;
68168;SDS011;54981;50.206;15.978;2023-07-24T12:57:14;17.17;;;9.07;;
68168;SDS011;54981;50.206;15.978;2023-07-24T12:59:44;13.30;;;9.27;;
68168;SDS011;54981;50.206;15.978;2023-07-24T13:02:14;11.63;;;9.30;;
68168;SDS011;54981;50.206;15.978;2023-07-24T13:04:45;11.52;;;9.38;;
68168;SDS011;54981;50.206;15.978;2023-07-24T13:07:15;11.05;;;8.38;;
68168;SDS011;54981;50.206;15.978;2023-07-24T13:09:46;12.07;;;9.02;;
68168;SDS011;54981;50.206;15.978;2023-07-24T13:12:16;11.90;;;9.50;;
68168;SDS011;54981;50.206;15.978;2023-07-24T13:14:46;11.73;;;9.15;;
68168;SDS011;54981;50.206;15.978;2023-07-24T13:17:17;11.60;;;8.20;;
68168;SDS011;54981;50.206;15.978;2023-07-24T13:19:47;12.45;;;8.95;;
68168;SDS011;54981;50.206;15.978;2023-07-24T13:22:17;11.60;;;9.32;;
68168;SDS011;54981;50.206;15.978;2023-07-24T13:24:48;11.70;;;9.20;;
68168;SDS011;54981;50.206;15.978;2023-07-24T13:27:18;13.50;;;9.15;;
68168;SDS011;54981;50.206;15.978;2023-07-24T13:29:48;11.77;;;8.75;;
68168;SDS011;54981;50.206;15.978;2023-07-24T13:32:19;12.55;;;8.90;;
68168;SDS011;54981;50.206;15.978;2023-07-24T13:34:49;16.13;;;9.27;;
68168;SDS011;54981;50.206;15.978;2023-07-24T13:37:19;11.73;;;9.32;;
68168;SDS011;54981;50.206;15.978;2023-07-24T13:39:51;13.45;;;9.93;;
68168;SDS011;54981;50.206;15.978;2023-07-24T13:42:21;12.50;;;9.48;;
68168;SDS011;54981;50.206;15.978;2023-07-24T13:44:52;12.52;;;10.20;;
68168;SDS011;54981;50.206;15.978;2023-07-24T13:47:22;13.85;;;10.10;;
68168;SDS011;54981;50.206;15.978;2023-07-24T13:49:52;14.18;;;10.02;;
68168;SDS011;54981;50.206;15.978;2023-07-24T13:52:23;12.88;;;8.95;;
68168;SDS011;54981;50.206;15.978;2023-07-24T13:54:53;11.68;;;9.65;;
68168;SDS011;54981;50.206;15.978;2023-07-24T13:57:23;12.80;;;9.85;;
68168;SDS011;54981;50.206;15.978;2023-07-24T13:59:54;13.32;;;9.82;;
68168;SDS011;54981;50.206;15.978;2023-07-24T14:02:24;12.82;;;9.90;;
68168;SDS011;54981;50.206;15.978;2023-07-24T14:04:54;15.80;;;9.93;;
68168;SDS011;54981;50.206;15.978;2023-07-24T14:07:25;12.68;;;9.85;;
68168;SDS011;54981;50.206;15.978;2023-07-24T14:09:55;14.07;;;9.70;;
68168;SDS011;54981;50.206;15.978;2023-07-24T14:12:25;15.13;;;10.23;;
68168;SDS011;54981;50.206;15.978;2023-07-24T14:14:56;15.65;;;10.75;;
68168;SDS011;54981;50.206;15.978;2023-07-24T14:17:26;14.82;;;9.60;;
68168;SDS011;54981;50.206;15.978;2023-07-24T14:19:57;14.60;;;10.15;;
68168;SDS011;54981;50.206;15.978;2023-07-24T14:22:27;13.10;;;9.27;;
68168;SDS011;54981;50.206;15.978;2023-07-24T14:24:58;12.73;;;9.77;;
68168;SDS011;54981;50.206;15.978;2023-07-24T14:27:28;13.88;;;9.90;;
68168;SDS011;54981;50.206;15.978;2023-07-24T14:29:58;13.40;;;9.45;;
68168;SDS011;54981;50.206;15.978;2023-07-24T14:32:29;14.63;;;9.90;;
68168;SDS011;54981;50.206;15.978;2023-07-24T14:34:59;13.63;;;10.15;;
68168;SDS011;54981;50.206;15.978;2023-07-24T14:37:29;15.98;;;9.30;;
68168;SDS011;54981;50.206;15.978;2023-07-24T14:40:01;12.38;;;9.32;;
68168;SDS011;54981;50.206;15.978;2023-07-24T14:42:31;14.82;;;9.73;;
68168;SDS011;54981;50.206;15.978;2023-07-24T14:45:01;13.00;;;9.45;;
68168;SDS011;54981;50.206;15.978;2023-07-24T14:47:32;13.68;;;9.70;;
68168;SDS011;54981;50.206;15.978;2023-07-24T14:50:03;18.40;;;9.80;;
68168;SDS011;54981;50.206;15.978;2023-07-24T14:52:33;12.90;;;9.00;;